Albatros — C6CN4 — position and weather

sailwx.info

Track history (hours):
 
Tides and Currents Weather Stations Pressure Air Temp Water Temp Dewpoint Dewpoint Depression Visibility Wind Speed Wind Dir Waves Ship Positions

Albatros

Last reported at 2018-Nov-11 02:30 UTC. Time now 2018-Nov-13 06:46 UTC.
Position N 53°40' E 005°34'.

Length 205.5 m; beam 25.2 m; draft 7.6 m.

Type: Passenger vessel. MMSI: 308784000.

Date/timePositionNaut miles runAvg speedWind from/ knotsBaromVisibWave heightAir tempDewpointWater temp
2018-Nov-11 02:30N 53°40' E 005°34'1114.8
2018-Nov-11 01:46N 53°44' E 005°52'6413.3
2018-Nov-10 20:57N 53°60' E 007°37'512.1
2018-Nov-10 20:32N 53°56' E 007°43'612.0
2018-Nov-10 20:02N 53°52' E 007°51'714.6
2018-Nov-10 19:32N 53°50' E 008°03'918.8
2018-Nov-10 19:02N 53°44' E 008°15'1019.6
2018-Nov-10 18:32N 53°38' E 008°27'510.6
2018-Nov-10 18:02N 53°34' E 008°33'0 0.1
2018-Nov-10 17:30N 53°34' E 008°33'0 0.0
2018-Nov-10 17:00N 53°34' E 008°33'0 0.0
2018-Nov-10 16:30N 53°34' E 008°33'0 0.0
2018-Nov-10 16:00N 53°34' E 008°33'0 0.0
2018-Nov-10 15:30N 53°34' E 008°33'0 0.0
2018-Nov-10 15:00N 53°34' E 008°33'0 0.0
2018-Nov-10 14:30N 53°34' E 008°33'0 0.0
2018-Nov-10 14:00N 53°34' E 008°33'0 0.0
2018-Nov-10 13:30N 53°34' E 008°33'0 0.0
2018-Nov-10 13:00N 53°34' E 008°33'0 0.0
2018-Nov-10 12:30N 53°34' E 008°33'0 0.0
2018-Nov-10 12:00N 53°34' E 008°33'0 0.0
2018-Nov-10 11:30N 53°34' E 008°33'0 0.0
2018-Nov-10 11:00N 53°34' E 008°33'0 0.0
2018-Nov-10 10:30N 53°34' E 008°33'0 0.0
2018-Nov-10 10:00N 53°34' E 008°33'0 0.0
2018-Nov-10 09:30N 53°34' E 008°33'0 0.0
2018-Nov-10 09:00N 53°34' E 008°33'0 0.0
2018-Nov-10 08:30N 53°34' E 008°33'0 0.0
2018-Nov-10 08:00N 53°34' E 008°33'0 0.0
2018-Nov-10 07:30N 53°34' E 008°33'0 0.0
2018-Nov-10 07:02N 53°34' E 008°33'0 0.5
2018-Nov-10 06:32N 53°33' E 008°33'3 5.7
2018-Nov-10 06:02N 53°36' E 008°31'612.0
2018-Nov-10 05:32N 53°40' E 008°23'714.9
2018-Nov-10 05:02N 53°45' E 008°13'715.0
2018-Nov-10 04:32N 53°50' E 008°04'816.1
2018-Nov-10 04:02N 53°52' E 007°51'510.7
2018-Nov-10 03:32N 53°53' E 007°42'2111.9
2018-Nov-10 01:44N 53°51' E 007°06'611.6
2018-Nov-10 01:15N 53°50' E 006°57'1511.5
2018-Nov-09 23:54N 53°47' E 006°31'411.1
2018-Nov-09 23:32N 53°46' E 006°24'1611.5
2018-Nov-09 22:09N 53°41' E 005°59'311.7
2018-Nov-09 21:56N 53°40' E 005°55'711.7
2018-Nov-09 21:22N 53°38' E 005°44'412.0
2018-Nov-09 21:02N 53°36' E 005°38'612.3
2018-Nov-09 20:32N 53°34' E 005°28'814.1
2018-Nov-09 19:59N 53°32' E 005°16'715.1
2018-Nov-09 19:32N 53°30' E 005°05'815.2
2018-Nov-09 19:01N 53°27' E 004°53'914.9
2018-Nov-09 18:23N 53°22' E 004°40'615.4
2018-Nov-09 18:01N 53°17' E 004°35'715.8
2018-Nov-09 17:32N 53°10' E 004°29'815.9
2018-Nov-09 17:02N 53°03' E 004°22'815.4
2018-Nov-09 16:32N 52°56' E 004°19'815.8
2018-Nov-09 16:03N 52°49' E 004°13'815.6
2018-Nov-09 15:31N 52°43' E 004°04'815.6
2018-Nov-09 15:02N 52°37' E 003°55'815.5
2018-Nov-09 14:33N 52°32' E 003°46'815.5
2018-Nov-09 14:02N 52°26' E 003°37'715.1
2018-Nov-09 13:32N 52°21' E 003°29'814.7
2018-Nov-09 13:01N 52°16' E 003°20'714.4
2018-Nov-09 12:33N 52°10' E 003°12'713.6
2018-Nov-09 12:01N 52°05' E 003°06'612.4
2018-Nov-09 11:32N 52°01' E 002°59'913.0
2018-Nov-09 10:50N 51°54' E 002°49'512.7
2018-Nov-09 10:28N 51°50' E 002°44'512.5
2018-Nov-09 10:02N 51°46' E 002°38'612.4
2018-Nov-09 09:32N 51°41' E 002°32'612.3
2018-Nov-09 09:02N 51°37' E 002°26'612.1
2018-Nov-09 08:32N 51°32' E 002°20'612.1
2018-Nov-09 08:02N 51°27' E 002°14'612.4
2018-Nov-09 07:32N 51°21' E 002°10'612.9
2018-Nov-09 07:02N 51°15' E 002°06'612.4
2018-Nov-09 06:32N 51°11' E 001°58'612.8
2018-Nov-09 06:02N 51°08' E 001°50'612.7
2018-Nov-09 05:32N 51°04' E 001°42'713.3
2018-Nov-09 05:02N 50°59' E 001°35'713.8
2018-Nov-09 04:32N 50°53' E 001°29'714.2
2018-Nov-09 04:02N 50°46' E 001°26'2013.6
2018-Nov-09 02:35N 50°32' E 001°04'813.1
2018-Nov-09 02:00N 50°29' E 000°53'3413.5
2018-Nov-08 23:27N 50°20' E 000°01'614.4
2018-Nov-08 23:02N 50°18' W 000°07'815.0
2018-Nov-08 22:30N 50°14' W 000°18'715.5
2018-Nov-08 22:02N 50°10' W 000°28'916.0
2018-Nov-08 21:30N 50°07' W 000°40'1716.5
2018-Nov-08 20:29N 49°59' W 001°03'716.9
2018-Nov-08 20:03N 49°55' W 001°14'816.9
2018-Nov-08 19:32N 49°52' W 001°26'1121.3
2018-Nov-08 19:02N 49°45' W 001°39'510.9
2018-Nov-08 18:32N 49°40' W 001°37'1 1.7
2018-Nov-08 18:00N 49°39' W 001°37'0 0.0
2018-Nov-08 17:33N 49°39' W 001°37'0 0.0
2018-Nov-08 17:00N 49°39' W 001°37'0 0.0
2018-Nov-08 16:30N 49°39' W 001°37'0 0.0
2018-Nov-08 16:00N 49°39' W 001°37'0 0.0
2018-Nov-08 15:30N 49°39' W 001°37'0 0.0
2018-Nov-08 14:57N 49°39' W 001°37'0 0.0
2018-Nov-08 14:21N 49°39' W 001°37'0 0.0
2018-Nov-08 14:00N 49°39' W 001°37'0 0.0
2018-Nov-08 13:30N 49°39' W 001°37'0 0.0
2018-Nov-08 12:57N 49°39' W 001°37'0 0.0
2018-Nov-08 12:27N 49°39' W 001°37'0 0.0
2018-Nov-08 12:00N 49°39' W 001°37'0 0.0
2018-Nov-08 11:32N 49°39' W 001°37'0 1.0
2018-Nov-08 11:02N 49°39' W 001°37'4 7.7
2018-Nov-08 10:32N 49°42' W 001°41'611.3
2018-Nov-08 10:02N 49°46' W 001°47'815.6
2018-Nov-08 09:32N 49°49' W 001°58'3215.6
2018-Nov-08 07:30N 49°49' W 002°48'10119.3
2018-Nov-08 02:16N 48°60' W 005°03'519.3
2018-Nov-08 02:02N 48°57' W 005°09'1019.1
2018-Nov-08 01:32N 48°53' W 005°22'1018.7
2018-Nov-08 01:01N 48°46' W 005°33'618.3
2018-Nov-08 00:43N 48°42' W 005°38'46716.0
2018-Nov-06 19:29N 41°15' W 008°51'716.8
2018-Nov-06 19:03N 41°10' W 008°44'115.5
2018-Nov-06 19:01N 41°10' W 008°43'1 1.9
2018-Nov-06 18:27N 41°11' W 008°42'0 0.0
2018-Nov-06 18:03N 41°11' W 008°42'0 0.0
2018-Nov-06 17:57N 41°11' W 008°42'0 0.0
2018-Nov-06 17:30N 41°11' W 008°42'0 0.0
2018-Nov-06 17:03N 41°11' W 008°42'0 0.0
2018-Nov-06 17:00N 41°11' W 008°42'0 0.0
2018-Nov-06 16:27N 41°11' W 008°42'0 0.0
2018-Nov-06 16:03N 41°11' W 008°42'0 0.0
2018-Nov-06 16:00N 41°11' W 008°42'0 0.0
2018-Nov-06 15:30N 41°11' W 008°42'0 0.0
2018-Nov-06 15:03N 41°11' W 008°42'0 0.0
2018-Nov-06 14:57N 41°11' W 008°42'0 0.0
2018-Nov-06 14:30N 41°11' W 008°42'0 0.0
2018-Nov-06 14:03N 41°11' W 008°42'0 0.0
2018-Nov-06 14:00N 41°11' W 008°42'0 0.0
2018-Nov-06 13:30N 41°11' W 008°42'0 0.0
2018-Nov-06 13:03N 41°11' W 008°42'0 0.0
2018-Nov-06 13:00N 41°11' W 008°42'0 0.0
2018-Nov-06 12:27N 41°11' W 008°42'0 0.0
2018-Nov-06 12:03N 41°11' W 008°42'0 0.0
2018-Nov-06 12:00N 41°11' W 008°42'0 0.0
2018-Nov-06 11:30N 41°11' W 008°42'0 0.0
2018-Nov-06 11:03N 41°11' W 008°42'0 0.0
2018-Nov-06 11:00N 41°11' W 008°42'0 0.0
2018-Nov-06 10:31N 41°11' W 008°42'2 4.0
2018-Nov-06 10:04N 41°09' W 008°43'0 7.4
2018-Nov-06 10:00N 41°09' W 008°44'  
2018-Nov-01 17:01N 28°01' W 016°24'113.2
2018-Nov-01 16:54N 28°02' W 016°23'713.3
2018-Nov-01 16:22N 28°06' W 016°16'413.7
2018-Nov-01 16:03N 28°09' W 016°13'113.6
2018-Nov-01 15:59N 28°10' W 016°12'713.6
2018-Nov-01 15:31N 28°15' W 016°08'612.6
2018-Nov-01 15:03N 28°20' W 016°05'112.7
2018-Nov-01 15:00N 28°20' W 016°05'612.5
2018-Nov-01 14:31N 28°25' W 016°10'511.0
2018-Nov-01 14:01N 28°29' W 016°14'1 1.2
2018-Nov-01 13:30N 28°28' W 016°15'0 0.0
2018-Nov-01 13:00N 28°28' W 016°15'0 0.0
2018-Nov-01 12:30N 28°28' W 016°15'0 0.0
2018-Nov-01 12:00N 28°28' W 016°15'0 0.0
2018-Nov-01 11:30N 28°28' W 016°15'0 0.0
2018-Nov-01 11:00N 28°28' W 016°15'0 0.0
2018-Nov-01 10:30N 28°28' W 016°15'0 0.0
2018-Nov-01 10:00N 28°28' W 016°15'0 0.0
2018-Nov-01 09:30N 28°28' W 016°15'0 0.0
2018-Nov-01 09:00N 28°28' W 016°15'0 0.0
2018-Nov-01 08:30N 28°28' W 016°15'0 0.0
2018-Nov-01 08:00N 28°28' W 016°15'0 0.0
2018-Nov-01 07:30N 28°28' W 016°15'0 0.0
2018-Nov-01 07:00N 28°28' W 016°15'0 0.0
2018-Nov-01 06:30N 28°28' W 016°15'0 1.0
2018-Nov-01 06:03N 28°29' W 016°14'0 4.2
2018-Nov-01 06:00N 28°29' W 016°14'4 8.1
2018-Nov-01 05:30N 28°27' W 016°10'613.0
2018-Nov-01 05:03N 28°27' W 016°03'110.9
2018-Nov-01 05:00N 28°27' W 016°03'713.4
2018-Nov-01 04:30N 28°28' W 015°55'614.2
2018-Nov-01 04:04N 28°33' W 015°50'112.9
2018-Nov-01 04:00N 28°33' W 015°49'612.7
2018-Nov-01 03:30N 28°38' W 015°44'612.7
2018-Nov-01 03:03N 28°41' W 015°39'113.5
2018-Nov-01 03:00N 28°41' W 015°38'713.5
2018-Nov-01 02:30N 28°41' W 015°30'  
Track history (hours):
 
Tides and Currents Weather Stations Pressure Air Temp Water Temp Dewpoint Dewpoint Depression Visibility Wind Speed Wind Dir Waves Ship Positions

Albatros

Last reported at 2018-Nov-11 02:30 UTC. Time now 2018-Nov-13 06:46 UTC.
Position N 53°40' E 005°34'.

Length 205.5 m; beam 25.2 m; draft 7.6 m.

Type: Passenger vessel. MMSI: 308784000.

Date/timePositionNaut miles runAvg speedWind from/ knotsBaromVisibWave heightAir tempDewpointWater temp
2018-Nov-11 02:30N 53°40' E 005°34'1114.8
2018-Nov-11 01:46N 53°44' E 005°52'6413.3
2018-Nov-10 20:57N 53°60' E 007°37'512.1
2018-Nov-10 20:32N 53°56' E 007°43'612.0
2018-Nov-10 20:02N 53°52' E 007°51'714.6
2018-Nov-10 19:32N 53°50' E 008°03'918.8
2018-Nov-10 19:02N 53°44' E 008°15'1019.6
2018-Nov-10 18:32N 53°38' E 008°27'510.6
2018-Nov-10 18:02N 53°34' E 008°33'0 0.1
2018-Nov-10 17:30N 53°34' E 008°33'0 0.0
2018-Nov-10 17:00N 53°34' E 008°33'0 0.0
2018-Nov-10 16:30N 53°34' E 008°33'0 0.0
2018-Nov-10 16:00N 53°34' E 008°33'0 0.0
2018-Nov-10 15:30N 53°34' E 008°33'0 0.0
2018-Nov-10 15:00N 53°34' E 008°33'0 0.0
2018-Nov-10 14:30N 53°34' E 008°33'0 0.0
2018-Nov-10 14:00N 53°34' E 008°33'0 0.0
2018-Nov-10 13:30N 53°34' E 008°33'0 0.0
2018-Nov-10 13:00N 53°34' E 008°33'0 0.0
2018-Nov-10 12:30N 53°34' E 008°33'0 0.0
2018-Nov-10 12:00N 53°34' E 008°33'0 0.0
2018-Nov-10 11:30N 53°34' E 008°33'0 0.0
2018-Nov-10 11:00N 53°34' E 008°33'0 0.0
2018-Nov-10 10:30N 53°34' E 008°33'0 0.0
2018-Nov-10 10:00N 53°34' E 008°33'0 0.0
2018-Nov-10 09:30N 53°34' E 008°33'0 0.0
2018-Nov-10 09:00N 53°34' E 008°33'0 0.0
2018-Nov-10 08:30N 53°34' E 008°33'0 0.0
2018-Nov-10 08:00N 53°34' E 008°33'0 0.0
2018-Nov-10 07:30N 53°34' E 008°33'0 0.0
2018-Nov-10 07:02N 53°34' E 008°33'0 0.5
2018-Nov-10 06:32N 53°33' E 008°33'3 5.7
2018-Nov-10 06:02N 53°36' E 008°31'612.0
2018-Nov-10 05:32N 53°40' E 008°23'714.9
2018-Nov-10 05:02N 53°45' E 008°13'715.0
2018-Nov-10 04:32N 53°50' E 008°04'816.1
2018-Nov-10 04:02N 53°52' E 007°51'510.7
2018-Nov-10 03:32N 53°53' E 007°42'2111.9
2018-Nov-10 01:44N 53°51' E 007°06'611.6
2018-Nov-10 01:15N 53°50' E 006°57'1511.5
2018-Nov-09 23:54N 53°47' E 006°31'411.1
2018-Nov-09 23:32N 53°46' E 006°24'1611.5
2018-Nov-09 22:09N 53°41' E 005°59'311.7
2018-Nov-09 21:56N 53°40' E 005°55'711.7
2018-Nov-09 21:22N 53°38' E 005°44'412.0
2018-Nov-09 21:02N 53°36' E 005°38'612.3
2018-Nov-09 20:32N 53°34' E 005°28'814.1
2018-Nov-09 19:59N 53°32' E 005°16'715.1
2018-Nov-09 19:32N 53°30' E 005°05'815.2
2018-Nov-09 19:01N 53°27' E 004°53'914.9
2018-Nov-09 18:23N 53°22' E 004°40'615.4
2018-Nov-09 18:01N 53°17' E 004°35'715.8
2018-Nov-09 17:32N 53°10' E 004°29'815.9
2018-Nov-09 17:02N 53°03' E 004°22'815.4
2018-Nov-09 16:32N 52°56' E 004°19'815.8
2018-Nov-09 16:03N 52°49' E 004°13'815.6
2018-Nov-09 15:31N 52°43' E 004°04'815.6
2018-Nov-09 15:02N 52°37' E 003°55'815.5
2018-Nov-09 14:33N 52°32' E 003°46'815.5
2018-Nov-09 14:02N 52°26' E 003°37'715.1
2018-Nov-09 13:32N 52°21' E 003°29'814.7
2018-Nov-09 13:01N 52°16' E 003°20'714.4
2018-Nov-09 12:33N 52°10' E 003°12'713.6
2018-Nov-09 12:01N 52°05' E 003°06'612.4
2018-Nov-09 11:32N 52°01' E 002°59'913.0
2018-Nov-09 10:50N 51°54' E 002°49'512.7
2018-Nov-09 10:28N 51°50' E 002°44'512.5
2018-Nov-09 10:02N 51°46' E 002°38'612.4
2018-Nov-09 09:32N 51°41' E 002°32'612.3
2018-Nov-09 09:02N 51°37' E 002°26'612.1
2018-Nov-09 08:32N 51°32' E 002°20'612.1
2018-Nov-09 08:02N 51°27' E 002°14'612.4
2018-Nov-09 07:32N 51°21' E 002°10'612.9
2018-Nov-09 07:02N 51°15' E 002°06'612.4
2018-Nov-09 06:32N 51°11' E 001°58'612.8
2018-Nov-09 06:02N 51°08' E 001°50'612.7
2018-Nov-09 05:32N 51°04' E 001°42'713.3
2018-Nov-09 05:02N 50°59' E 001°35'713.8
2018-Nov-09 04:32N 50°53' E 001°29'714.2
2018-Nov-09 04:02N 50°46' E 001°26'2013.6
2018-Nov-09 02:35N 50°32' E 001°04'813.1
2018-Nov-09 02:00N 50°29' E 000°53'3413.5
2018-Nov-08 23:27N 50°20' E 000°01'614.4
2018-Nov-08 23:02N 50°18' W 000°07'815.0
2018-Nov-08 22:30N 50°14' W 000°18'715.5
2018-Nov-08 22:02N 50°10' W 000°28'916.0
2018-Nov-08 21:30N 50°07' W 000°40'1716.5
2018-Nov-08 20:29N 49°59' W 001°03'716.9
2018-Nov-08 20:03N 49°55' W 001°14'816.9
2018-Nov-08 19:32N 49°52' W 001°26'1121.3
2018-Nov-08 19:02N 49°45' W 001°39'510.9
2018-Nov-08 18:32N 49°40' W 001°37'1 1.7
2018-Nov-08 18:00N 49°39' W 001°37'0 0.0
2018-Nov-08 17:33N 49°39' W 001°37'0 0.0
2018-Nov-08 17:00N 49°39' W 001°37'0 0.0
2018-Nov-08 16:30N 49°39' W 001°37'0 0.0
2018-Nov-08 16:00N 49°39' W 001°37'0 0.0
2018-Nov-08 15:30N 49°39' W 001°37'0 0.0
2018-Nov-08 14:57N 49°39' W 001°37'0 0.0
2018-Nov-08 14:21N 49°39' W 001°37'0 0.0
2018-Nov-08 14:00N 49°39' W 001°37'0 0.0
2018-Nov-08 13:30N 49°39' W 001°37'0 0.0
2018-Nov-08 12:57N 49°39' W 001°37'0 0.0
2018-Nov-08 12:27N 49°39' W 001°37'0 0.0
2018-Nov-08 12:00N 49°39' W 001°37'0 0.0
2018-Nov-08 11:32N 49°39' W 001°37'0 1.0
2018-Nov-08 11:02N 49°39' W 001°37'4 7.7
2018-Nov-08 10:32N 49°42' W 001°41'611.3
2018-Nov-08 10:02N 49°46' W 001°47'815.6
2018-Nov-08 09:32N 49°49' W 001°58'3215.6
2018-Nov-08 07:30N 49°49' W 002°48'10119.3
2018-Nov-08 02:16N 48°60' W 005°03'519.3
2018-Nov-08 02:02N 48°57' W 005°09'1019.1
2018-Nov-08 01:32N 48°53' W 005°22'1018.7
2018-Nov-08 01:01N 48°46' W 005°33'618.3
2018-Nov-08 00:43N 48°42' W 005°38'46716.0
2018-Nov-06 19:29N 41°15' W 008°51'716.8
2018-Nov-06 19:03N 41°10' W 008°44'115.5
2018-Nov-06 19:01N 41°10' W 008°43'1 1.9
2018-Nov-06 18:27N 41°11' W 008°42'0 0.0
2018-Nov-06 18:03N 41°11' W 008°42'0 0.0
2018-Nov-06 17:57N 41°11' W 008°42'0 0.0
2018-Nov-06 17:30N 41°11' W 008°42'0 0.0
2018-Nov-06 17:03N 41°11' W 008°42'0 0.0
2018-Nov-06 17:00N 41°11' W 008°42'0 0.0
2018-Nov-06 16:27N 41°11' W 008°42'0 0.0
2018-Nov-06 16:03N 41°11' W 008°42'0 0.0
2018-Nov-06 16:00N 41°11' W 008°42'0 0.0
2018-Nov-06 15:30N 41°11' W 008°42'0 0.0
2018-Nov-06 15:03N 41°11' W 008°42'0 0.0
2018-Nov-06 14:57N 41°11' W 008°42'0 0.0
2018-Nov-06 14:30N 41°11' W 008°42'0 0.0
2018-Nov-06 14:03N 41°11' W 008°42'0 0.0
2018-Nov-06 14:00N 41°11' W 008°42'0 0.0
2018-Nov-06 13:30N 41°11' W 008°42'0 0.0
2018-Nov-06 13:03N 41°11' W 008°42'0 0.0
2018-Nov-06 13:00N 41°11' W 008°42'0 0.0
2018-Nov-06 12:27N 41°11' W 008°42'0 0.0
2018-Nov-06 12:03N 41°11' W 008°42'0 0.0
2018-Nov-06 12:00N 41°11' W 008°42'0 0.0
2018-Nov-06 11:30N 41°11' W 008°42'0 0.0
2018-Nov-06 11:03N 41°11' W 008°42'0 0.0
2018-Nov-06 11:00N 41°11' W 008°42'0 0.0
2018-Nov-06 10:31N 41°11' W 008°42'2 4.0
2018-Nov-06 10:04N 41°09' W 008°43'0 7.4
2018-Nov-06 10:00N 41°09' W 008°44'  
2018-Nov-01 17:01N 28°01' W 016°24'113.2
2018-Nov-01 16:54N 28°02' W 016°23'713.3
2018-Nov-01 16:22N 28°06' W 016°16'413.7
2018-Nov-01 16:03N 28°09' W 016°13'113.6
2018-Nov-01 15:59N 28°10' W 016°12'713.6
2018-Nov-01 15:31N 28°15' W 016°08'612.6
2018-Nov-01 15:03N 28°20' W 016°05'112.7
2018-Nov-01 15:00N 28°20' W 016°05'612.5
2018-Nov-01 14:31N 28°25' W 016°10'511.0
2018-Nov-01 14:01N 28°29' W 016°14'1 1.2
2018-Nov-01 13:30N 28°28' W 016°15'0 0.0
2018-Nov-01 13:00N 28°28' W 016°15'0 0.0
2018-Nov-01 12:30N 28°28' W 016°15'0 0.0
2018-Nov-01 12:00N 28°28' W 016°15'0 0.0
2018-Nov-01 11:30N 28°28' W 016°15'0 0.0
2018-Nov-01 11:00N 28°28' W 016°15'0 0.0
2018-Nov-01 10:30N 28°28' W 016°15'0 0.0
2018-Nov-01 10:00N 28°28' W 016°15'0 0.0
2018-Nov-01 09:30N 28°28' W 016°15'0 0.0
2018-Nov-01 09:00N 28°28' W 016°15'0 0.0
2018-Nov-01 08:30N 28°28' W 016°15'0 0.0
2018-Nov-01 08:00N 28°28' W 016°15'0 0.0
2018-Nov-01 07:30N 28°28' W 016°15'0 0.0
2018-Nov-01 07:00N 28°28' W 016°15'0 0.0
2018-Nov-01 06:30N 28°28' W 016°15'0 1.0
2018-Nov-01 06:03N 28°29' W 016°14'0 4.2
2018-Nov-01 06:00N 28°29' W 016°14'4 8.1
2018-Nov-01 05:30N 28°27' W 016°10'613.0
2018-Nov-01 05:03N 28°27' W 016°03'110.9
2018-Nov-01 05:00N 28°27' W 016°03'713.4
2018-Nov-01 04:30N 28°28' W 015°55'614.2
2018-Nov-01 04:04N 28°33' W 015°50'112.9
2018-Nov-01 04:00N 28°33' W 015°49'612.7
2018-Nov-01 03:30N 28°38' W 015°44'612.7
2018-Nov-01 03:03N 28°41' W 015°39'113.5
2018-Nov-01 03:00N 28°41' W 015°38'713.5
2018-Nov-01 02:30N 28°41' W 015°30'  

Dump ship's entire track history